Time;durP1;ratioP1;P1;durP2;ratioP2;P2;SDS_P1;SDS_P2;PMS_P1;PMS_P2;Temp;Humidity;BMP_temperature;BMP_pressure;BME280_temperature;BME280_humidity;BME280_pressure;Samples;Min_cycle;Max_cycle;Signal;HPM_P1;HPM_P2
2022/01/31 00:00:07;;;;;;;26.00;5.67;;;4.00;1.00;;;;;;6243745;23;20240;-70
2022/01/31 00:02:35;;;;;;;28.80;5.23;;;4.00;92.00;;;;;;6243330;23;20178;-69
2022/01/31 00:05:02;;;;;;;27.17;5.53;;;4.00;1.00;;;;;;6244453;23;20182;-70
2022/01/31 00:07:30;;;;;;;24.63;5.13;;;4.00;1.00;;;;;;6243351;23;20205;-70
2022/01/31 00:09:57;;;;;;;23.10;4.40;;;4.00;1.00;;;;;;6242353;23;20236;-70
2022/01/31 00:12:28;;;;;;;25.03;5.17;;;3.90;1.00;;;;;;6245268;23;20154;-70
2022/01/31 00:15:01;;;;;;;24.23;5.83;;;3.90;1.00;;;;;;6242620;23;20435;-70
2022/01/31 00:17:28;;;;;;;24.93;4.40;;;3.90;1.00;;;;;;6244456;23;20178;-70
2022/01/31 00:19:55;;;;;;;31.67;5.00;;;3.80;1.00;;;;;;6244445;23;20550;-70
2022/01/31 00:22:22;;;;;;;28.03;5.17;;;3.90;99.90;;;;;;6241796;23;20535;-70
2022/01/31 00:24:51;;;;;;;25.77;5.40;;;3.90;1.00;;;;;;6242566;23;20199;-70
2022/01/31 00:27:17;;;;;;;21.67;5.00;;;3.80;1.00;;;;;;6244325;23;20158;-70
2022/01/31 00:29:44;;;;;;;23.30;5.07;;;3.80;1.00;;;;;;6243385;23;20178;-70
2022/01/31 00:32:11;;;;;;;28.67;5.53;;;3.80;1.00;;;;;;6241105;23;20163;-69
2022/01/31 00:34:39;;;;;;;33.77;5.00;;;3.90;1.00;;;;;;6242516;23;20525;-70
2022/01/31 00:37:06;;;;;;;28.40;5.30;;;3.90;1.00;;;;;;6244416;23;20579;-70
2022/01/31 00:39:35;;;;;;;28.97;5.77;;;3.90;1.00;;;;;;6242799;23;20159;-70
2022/01/31 00:42:07;;;;;;;28.30;5.40;;;3.90;1.00;;;;;;6243170;23;20174;-70
2022/01/31 00:44:42;;;;;;;27.77;4.87;;;3.90;1.00;;;;;;6243067;23;20554;-76
2022/01/31 00:47:18;;;;;;;19.90;4.53;;;3.80;1.00;;;;;;6241947;23;20179;-76
2022/01/31 00:49:50;;;;;;;26.80;5.33;;;3.80;1.00;;;;;;6244275;23;20200;-76
2022/01/31 00:52:17;;;;;;;18.83;4.30;;;3.80;1.00;;;;;;6241709;23;20185;-76
2022/01/31 00:54:44;;;;;;;25.77;5.47;;;3.80;1.00;;;;;;6243472;23;20479;-76
2022/01/31 00:57:13;;;;;;;28.10;5.17;;;3.90;1.00;;;;;;6241864;23;20163;-76
2022/01/31 00:59:40;;;;;;;29.30;5.80;;;3.90;1.00;;;;;;6242283;23;20478;-76
2022/01/31 01:02:07;;;;;;;24.13;4.20;;;3.90;1.00;;;;;;6244628;23;20162;-77
2022/01/31 01:04:34;;;;;;;21.20;5.53;;;3.90;1.00;;;;;;6243866;23;20155;-76
2022/01/31 01:07:01;;;;;;;30.47;5.50;;;3.90;1.00;;;;;;6244188;23;20483;-76
2022/01/31 01:09:28;;;;;;;31.07;4.77;;;3.90;1.00;;;;;;6244115;23;20630;-76
2022/01/31 01:11:55;;;;;;;24.27;4.73;;;4.00;1.00;;;;;;6243762;23;20159;-76
2022/01/31 01:14:23;;;;;;;25.63;4.73;;;4.00;1.00;;;;;;6241451;23;20519;-76
2022/01/31 01:16:50;;;;;;;21.83;4.83;;;4.00;1.00;;;;;;6244003;23;20643;-76
2022/01/31 01:19:17;;;;;;;29.43;5.53;;;4.00;1.00;;;;;;6241813;23;20167;-76
2022/01/31 01:21:44;;;;;;;25.97;5.47;;;3.90;1.00;;;;;;6242528;23;20208;-76
2022/01/31 01:24:11;;;;;;;24.33;5.47;;;3.90;1.00;;;;;;6243120;23;20158;-75
2022/01/31 01:26:38;;;;;;;25.37;4.93;;;3.80;1.00;;;;;;6242936;23;20155;-76
2022/01/31 01:29:05;;;;;;;27.23;5.67;;;3.70;1.10;;;;;;6243945;23;20179;-76
2022/01/31 01:31:33;;;;;;;30.37;5.10;;;3.60;65.50;;;;;;6242870;23;20586;-76
2022/01/31 01:34:00;;;;;;;18.20;5.63;;;3.70;99.90;;;;;;6243484;23;20159;-76
2022/01/31 01:36:28;;;;;;;34.27;6.10;;;3.70;1.00;;;;;;6242484;23;20216;-76
2022/01/31 01:38:55;;;;;;;27.93;5.27;;;3.70;1.00;;;;;;6241618;23;20225;-76
2022/01/31 01:41:22;;;;;;;26.93;5.20;;;3.70;1.00;;;;;;6242117;23;20245;-76
2022/01/31 01:43:49;;;;;;;27.83;5.20;;;3.70;1.00;;;;;;6244015;23;20582;-76
2022/01/31 01:46:16;;;;;;;24.97;4.90;;;3.70;1.00;;;;;;6240451;23;20216;-76
2022/01/31 01:48:45;;;;;;;28.37;5.27;;;3.70;1.00;;;;;;6242916;23;20225;-77
2022/01/31 01:51:12;;;;;;;31.30;5.00;;;3.60;1.00;;;;;;6243131;23;20183;-77
2022/01/31 01:53:39;;;;;;;24.07;4.67;;;3.60;62.80;;;;;;6240386;23;20163;-76
2022/01/31 01:56:06;;;;;;;24.97;5.30;;;3.70;66.70;;;;;;6242870;23;20524;-76
2022/01/31 01:58:39;;;;;;;23.47;4.17;;;3.80;60.30;;;;;;6241477;23;20163;-75
2022/01/31 02:01:07;;;;;;;31.87;5.73;;;3.80;1.00;;;;;;6243571;23;20606;-75
2022/01/31 02:03:36;;;;;;;22.63;4.27;;;3.90;1.00;;;;;;6242185;23;20530;-75
2022/01/31 02:06:05;;;;;;;24.23;5.93;;;3.90;1.00;;;;;;6242752;23;20162;-75
2022/01/31 02:08:39;;;;;;;23.80;4.90;;;3.90;1.00;;;;;;6243496;23;20183;-75
2022/01/31 02:11:06;;;;;;;20.87;4.27;;;3.80;1.00;;;;;;6243931;23;20519;-75
2022/01/31 02:13:35;;;;;;;20.23;5.27;;;3.90;1.00;;;;;;6243346;23;20155;-75
2022/01/31 02:16:03;;;;;;;25.73;4.93;;;3.90;1.00;;;;;;6243364;23;20154;-75
2022/01/31 02:18:31;;;;;;;28.40;4.90;;;4.00;1.00;;;;;;6242620;23;20586;-75
2022/01/31 02:21:00;;;;;;;24.90;4.77;;;4.00;1.00;;;;;;6241743;23;20632;-75
2022/01/31 02:23:28;;;;;;;22.93;5.43;;;4.00;1.00;;;;;;6241660;23;20644;-75
2022/01/31 02:25:57;;;;;;;19.37;4.30;;;4.00;1.00;;;;;;6242884;23;20154;-75
2022/01/31 02:28:27;;;;;;;16.07;3.83;;;4.00;1.00;;;;;;6242901;23;20194;-75
2022/01/31 02:30:54;;;;;;;26.83;4.40;;;4.00;1.00;;;;;;6240447;23;20476;-75
2022/01/31 02:33:22;;;;;;;25.93;5.13;;;4.00;1.00;;;;;;6241543;23;20155;-75
2022/01/31 02:35:50;;;;;;;23.07;5.30;;;4.00;1.00;;;;;;6243332;23;20197;-75
2022/01/31 02:38:19;;;;;;;21.97;5.00;;;3.90;1.00;;;;;;6243221;23;20155;-76
2022/01/31 02:40:46;;;;;;;18.63;4.27;;;4.00;1.00;;;;;;6242794;23;20155;-76
2022/01/31 02:43:18;;;;;;;18.67;5.07;;;3.90;1.00;;;;;;6240066;23;20169;-76
2022/01/31 02:45:45;;;;;;;25.27;4.77;;;3.80;1.00;;;;;;6242408;23;20579;-76
2022/01/31 02:48:14;;;;;;;26.97;5.97;;;3.80;1.00;;;;;;6243483;23;20540;-75
2022/01/31 02:50:42;;;;;;;23.93;5.20;;;3.80;1.00;;;;;;6243092;23;20532;-76
2022/01/31 02:53:13;;;;;;;20.67;4.70;;;3.80;1.00;;;;;;6242524;23;20166;-76
2022/01/31 02:55:43;;;;;;;21.13;4.33;;;3.80;1.00;;;;;;6242072;23;20273;-75
2022/01/31 02:58:11;;;;;;;20.73;4.43;;;3.80;1.00;;;;;;6243217;23;20201;-75
2022/01/31 03:00:39;;;;;;;26.83;5.43;;;3.80;1.00;;;;;;6242069;23;20163;-75
2022/01/31 03:03:06;;;;;;;23.50;4.63;;;3.80;1.00;;;;;;6243141;23;20158;-75
2022/01/31 03:05:34;;;;;;;17.87;5.00;;;3.90;1.00;;;;;;6241704;23;20209;-75
2022/01/31 03:08:01;;;;;;;21.00;4.53;;;3.90;1.00;;;;;;6242155;23;20311;-75
2022/01/31 03:10:28;;;;;;;24.80;5.00;;;4.00;1.00;;;;;;6241545;23;20240;-75
2022/01/31 03:12:57;;;;;;;20.73;4.70;;;3.90;1.00;;;;;;6241144;23;20209;-75
2022/01/31 03:15:24;;;;;;;17.87;4.33;;;3.90;1.00;;;;;;6241749;23;20159;-74
2022/01/31 03:17:51;;;;;;;17.33;4.27;;;3.80;1.00;;;;;;6242314;23;20190;-75
2022/01/31 03:20:21;;;;;;;18.47;4.70;;;3.80;1.00;;;;;;6242951;23;20224;-75
2022/01/31 03:22:48;;;;;;;27.90;5.37;;;3.90;1.00;;;;;;6242663;23;20178;-75
2022/01/31 03:25:16;;;;;;;20.40;5.03;;;3.90;1.00;;;;;;6242716;23;20232;-75
2022/01/31 03:27:44;;;;;;;19.63;4.60;;;3.90;1.00;;;;;;6242506;23;20533;-75
2022/01/31 03:30:15;;;;;;;18.50;5.10;;;3.90;1.00;;;;;;6243356;23;20185;-75
2022/01/31 03:32:42;;;;;;;15.53;4.60;;;3.90;1.00;;;;;;6243095;23;20186;-75
2022/01/31 03:35:10;;;;;;;16.23;4.80;;;3.90;1.00;;;;;;6243063;23;20163;-75
2022/01/31 03:37:37;;;;;;;18.80;4.70;;;4.00;1.00;;;;;;6243386;23;20656;-75
2022/01/31 03:40:06;;;;;;;16.20;4.80;;;4.00;1.00;;;;;;6242425;23;20213;-75
2022/01/31 03:42:33;;;;;;;22.97;5.20;;;4.00;1.00;;;;;;6243084;23;20205;-75
2022/01/31 03:45:00;;;;;;;17.70;4.90;;;4.00;1.00;;;;;;6243110;23;20656;-75
2022/01/31 03:47:29;;;;;;;17.90;4.00;;;4.00;1.00;;;;;;6242354;23;20163;-75
2022/01/31 03:49:56;;;;;;;15.93;4.67;;;4.00;99.90;;;;;;6242698;23;20198;-75
2022/01/31 03:52:23;;;;;;;16.30;4.33;;;4.10;99.90;;;;;;6242975;23;20162;-75
2022/01/31 03:54:50;;;;;;;21.63;4.97;;;4.10;99.90;;;;;;6243000;23;20660;-75
2022/01/31 03:57:17;;;;;;;17.70;4.83;;;4.10;99.90;;;;;;6242900;23;20159;-75
2022/01/31 03:59:44;;;;;;;16.57;4.20;;;4.10;99.90;;;;;;6242743;23;20159;-75
2022/01/31 04:02:11;;;;;;;21.17;4.77;;;4.10;99.90;;;;;;6243066;23;20594;-75
2022/01/31 04:04:39;;;;;;;16.83;5.20;;;4.10;1.00;;;;;;6242579;23;20159;-75
2022/01/31 04:07:06;;;;;;;19.60;4.60;;;4.10;99.90;;;;;;6243412;23;20159;-75
2022/01/31 04:09:33;;;;;;;18.73;4.53;;;4.20;99.90;;;;;;6242811;23;20183;-75
2022/01/31 04:12:00;;;;;;;18.60;5.07;;;4.10;99.90;;;;;;6242781;23;20163;-75
2022/01/31 04:14:27;;;;;;;18.17;4.50;;;4.10;1.00;;;;;;6242750;23;20155;-68
2022/01/31 04:16:56;;;;;;;22.57;5.47;;;4.10;99.90;;;;;;6242878;23;20534;-73
2022/01/31 04:19:24;;;;;;;13.57;4.40;;;4.10;99.90;;;;;;6242707;23;20175;-68
2022/01/31 04:21:52;;;;;;;20.93;5.20;;;4.10;99.90;;;;;;6241472;23;20170;-68
2022/01/31 04:24:23;;;;;;;12.63;4.53;;;4.20;1.00;;;;;;6219681;23;20229;-68
2022/01/31 04:26:59;;;;;;;19.70;4.33;;;4.10;1.00;;;;;;6242319;23;20186;-68
2022/01/31 04:29:29;;;;;;;15.50;4.07;;;4.00;99.90;;;;;;6244578;23;20222;-69
2022/01/31 04:31:56;;;;;;;14.67;4.53;;;4.00;99.90;;;;;;6244525;23;20590;-68
2022/01/31 04:34:23;;;;;;;17.57;4.73;;;4.00;1.00;;;;;;6244197;23;20162;-68
2022/01/31 04:36:52;;;;;;;19.03;4.90;;;4.00;1.00;;;;;;6244259;23;20209;-68
2022/01/31 04:39:19;;;;;;;17.27;4.27;;;3.90;1.00;;;;;;6244820;23;20170;-68
2022/01/31 04:41:48;;;;;;;18.07;4.67;;;3.90;1.00;;;;;;6245440;23;20645;-68
2022/01/31 04:44:16;;;;;;;16.63;4.73;;;3.90;99.90;;;;;;6244585;23;20159;-68
2022/01/31 04:46:45;;;;;;;18.47;5.00;;;3.80;1.00;;;;;;6244764;23;20159;-68
2022/01/31 04:49:13;;;;;;;16.43;4.37;;;3.80;1.00;;;;;;6244687;23;20609;-68
2022/01/31 04:51:40;;;;;;;13.97;4.47;;;3.70;99.90;;;;;;6244658;23;20208;-68
2022/01/31 04:54:08;;;;;;;21.67;6.50;;;3.60;1.00;;;;;;6244212;23;20187;-68
2022/01/31 04:56:36;;;;;;;19.83;5.17;;;3.50;99.90;;;;;;6242512;23;20185;-68
2022/01/31 04:59:03;;;;;;;12.67;4.40;;;3.50;1.00;;;;;;6241510;23;20616;-68
2022/01/31 05:01:31;;;;;;;16.70;5.13;;;3.40;1.00;;;;;;6241769;23;20159;-68
2022/01/31 05:03:58;;;;;;;12.63;4.60;;;3.30;99.90;;;;;;6243997;23;20236;-68
2022/01/31 05:06:31;;;;;;;20.03;5.10;;;3.10;1.00;;;;;;6242871;23;20217;-68
2022/01/31 05:08:58;;;;;;;14.63;4.43;;;3.20;1.00;;;;;;6242537;23;20590;-68
2022/01/31 05:11:26;;;;;;;14.03;5.10;;;3.10;5.00;;;;;;6243262;23;20546;-68
2022/01/31 05:13:53;;;;;;;15.57;5.10;;;3.00;99.90;;;;;;6243258;23;20555;-68
2022/01/31 05:16:20;;;;;;;20.37;5.20;;;2.90;99.90;;;;;;6243557;23;20233;-69
2022/01/31 05:18:47;;;;;;;16.47;5.77;;;2.80;99.90;;;;;;6243343;23;20262;-68
2022/01/31 05:21:14;;;;;;;18.03;5.40;;;2.70;1.00;;;;;;6244256;23;20166;-69
2022/01/31 05:23:41;;;;;;;21.57;5.00;;;2.60;1.00;;;;;;6242070;23;20154;-69
2022/01/31 05:26:08;;;;;;;18.63;5.03;;;2.50;1.00;;;;;;6242151;23;20591;-68
2022/01/31 05:28:37;;;;;;;20.37;5.17;;;2.50;1.00;;;;;;6243137;23;20253;-68
2022/01/31 05:31:03;;;;;;;17.60;5.60;;;2.50;1.00;;;;;;6241865;23;20567;-68
2022/01/31 05:33:30;;;;;;;15.13;5.20;;;2.50;1.00;;;;;;6243618;23;20220;-68
2022/01/31 05:35:58;;;;;;;11.80;4.43;;;2.40;1.00;;;;;;6242553;23;20205;-68
2022/01/31 05:38:25;;;;;;;12.73;4.93;;;2.40;1.00;;;;;;6243176;23;20834;-68
2022/01/31 05:40:52;;;;;;;12.27;4.47;;;2.40;1.00;;;;;;6243338;23;20155;-68
2022/01/31 05:43:20;;;;;;;18.17;6.40;;;2.40;1.00;;;;;;6243295;23;20155;-68
2022/01/31 05:45:49;;;;;;;13.20;4.47;;;2.40;1.00;;;;;;6241137;23;20179;-68
2022/01/31 05:48:18;;;;;;;13.57;4.57;;;2.30;1.00;;;;;;6243084;23;20201;-69
2022/01/31 05:50:46;;;;;;;9.67;4.33;;;2.30;1.00;;;;;;6242147;23;20268;-69
2022/01/31 05:53:14;;;;;;;15.10;4.50;;;2.30;1.80;;;;;;6243298;23;20471;-68
2022/01/31 05:55:41;;;;;;;10.30;3.77;;;2.20;65.20;;;;;;6242549;23;20205;-69
2022/01/31 05:58:09;;;;;;;7.87;4.03;;;2.20;99.90;;;;;;6242158;23;20159;-69
2022/01/31 06:00:37;;;;;;;8.70;4.07;;;2.20;99.90;;;;;;6242246;23;20163;-68
2022/01/31 06:03:06;;;;;;;10.30;3.83;;;2.30;99.90;;;;;;6241936;23;20178;-69
2022/01/31 06:05:33;;;;;;;9.17;3.90;;;2.30;99.90;;;;;;6241467;23;20165;-68
2022/01/31 06:08:00;;;;;;;11.30;5.30;;;2.20;99.90;;;;;;6243141;23;20263;-69
2022/01/31 06:10:27;;;;;;;7.90;3.90;;;2.20;99.90;;;;;;6243486;23;20179;-69
2022/01/31 06:12:56;;;;;;;10.60;4.83;;;2.10;99.90;;;;;;6244065;23;20277;-69
2022/01/31 06:15:23;;;;;;;8.23;3.80;;;2.10;99.90;;;;;;6242966;23;20178;-69
2022/01/31 06:17:50;;;;;;;10.20;3.83;;;2.10;99.90;;;;;;6243752;23;20159;-69
2022/01/31 06:20:19;;;;;;;6.50;3.20;;;2.20;99.90;;;;;;6243175;23;20191;-69
2022/01/31 06:22:47;;;;;;;7.57;3.53;;;2.10;99.90;;;;;;6242231;23;20213;-68
2022/01/31 06:25:15;;;;;;;7.77;3.57;;;2.10;99.90;;;;;;6242324;23;20245;-69
2022/01/31 06:27:42;;;;;;;5.60;3.43;;;2.10;99.90;;;;;;6241556;23;20159;-69
2022/01/31 06:30:09;;;;;;;5.83;2.93;;;2.10;99.90;;;;;;6241445;23;20179;-68
2022/01/31 06:32:37;;;;;;;5.93;2.63;;;2.10;99.90;;;;;;6241843;23;20155;-68
2022/01/31 06:35:05;;;;;;;2.43;2.10;;;2.00;99.90;;;;;;6241823;23;20158;-68
2022/01/31 06:37:33;;;;;;;5.93;2.77;;;2.00;99.90;;;;;;6241938;23;20158;-68
2022/01/31 06:40:00;;;;;;;3.67;2.17;;;1.90;99.90;;;;;;6241438;23;20163;-68
2022/01/31 06:42:27;;;;;;;3.07;2.13;;;2.10;99.90;;;;;;6243310;23;20154;-68
2022/01/31 06:44:54;;;;;;;2.17;1.87;;;2.10;99.90;;;;;;6241137;23;20208;-68
2022/01/31 06:47:23;;;;;;;3.23;2.10;;;2.10;99.90;;;;;;6243246;23;20210;-68
2022/01/31 06:49:50;;;;;;;1.83;1.60;;;2.10;99.90;;;;;;6241828;23;20265;-68
2022/01/31 06:52:17;;;;;;;2.13;1.60;;;2.10;99.90;;;;;;6240840;23;20174;-69
2022/01/31 06:54:49;;;;;;;1.60;1.47;;;2.10;99.90;;;;;;6241433;23;20162;-68
2022/01/31 06:57:17;;;;;;;1.63;1.53;;;2.10;99.90;;;;;;6243099;23;20243;-68
2022/01/31 06:59:44;;;;;;;2.77;1.93;;;2.10;99.90;;;;;;6242217;23;20154;-68
2022/01/31 07:02:11;;;;;;;4.93;3.73;;;2.10;99.90;;;;;;6243120;23;20162;-69
2022/01/31 07:04:38;;;;;;;1.57;1.47;;;2.10;99.90;;;;;;6241715;23;20159;-69
2022/01/31 07:07:05;;;;;;;1.67;1.57;;;2.10;99.90;;;;;;6242918;23;20201;-68
2022/01/31 07:09:33;;;;;;;2.30;1.90;;;2.10;99.90;;;;;;6243217;23;20155;-68
2022/01/31 07:12:03;;;;;;;1.80;1.67;;;2.10;99.90;;;;;;6242009;23;20213;-68
2022/01/31 07:14:31;;;;;;;2.67;1.83;;;2.10;99.90;;;;;;6240451;23;20668;-68
2022/01/31 07:16:59;;;;;;;2.27;2.00;;;2.10;99.90;;;;;;6242575;23;20239;-68
2022/01/31 07:19:29;;;;;;;5.07;2.30;;;2.00;99.90;;;;;;6242930;23;20433;-69
2022/01/31 07:21:56;;;;;;;2.87;1.90;;;2.00;99.90;;;;;;6241313;23;20253;-69
2022/01/31 07:24:29;;;;;;;1.70;1.60;;;2.00;99.90;;;;;;6241009;23;20212;-69
2022/01/31 07:26:56;;;;;;;3.20;1.90;;;2.00;99.90;;;;;;6241400;23;20472;-69
2022/01/31 07:29:25;;;;;;;3.80;2.03;;;2.00;99.90;;;;;;6241278;23;20155;-69
2022/01/31 07:31:52;;;;;;;2.30;2.00;;;2.00;99.90;;;;;;6240801;23;20182;-69
2022/01/31 07:34:20;;;;;;;3.07;2.10;;;2.20;99.90;;;;;;6229387;23;20547;-68
2022/01/31 07:36:47;;;;;;;2.70;2.37;;;2.20;99.90;;;;;;6242511;23;20174;-69
2022/01/31 07:39:14;;;;;;;3.70;2.70;;;2.20;99.90;;;;;;6242993;23;20221;-68
2022/01/31 07:41:42;;;;;;;4.23;2.63;;;2.30;99.90;;;;;;6243183;23;20162;-68
2022/01/31 07:44:09;;;;;;;3.47;2.70;;;2.40;99.90;;;;;;6241375;23;20159;-68
2022/01/31 07:46:38;;;;;;;3.47;2.70;;;2.40;99.90;;;;;;6240922;23;20201;-68
2022/01/31 07:49:05;;;;;;;6.23;3.13;;;2.50;99.90;;;;;;6241256;23;20182;-74
2022/01/31 07:51:36;;;;;;;3.90;3.23;;;2.50;99.90;;;;;;6242183;23;20642;-74
2022/01/31 07:54:03;;;;;;;4.27;3.40;;;2.50;99.90;;;;;;6241894;23;20571;-74
2022/01/31 07:56:30;;;;;;;5.30;3.67;;;2.60;99.90;;;;;;6241383;23;20244;-74
2022/01/31 07:58:57;;;;;;;6.50;4.10;;;2.60;99.90;;;;;;6241092;23;20155;-74
2022/01/31 08:01:26;;;;;;;5.97;4.03;;;2.60;99.90;;;;;;6243618;23;20210;-74
2022/01/31 08:03:55;;;;;;;9.80;4.70;;;2.70;99.90;;;;;;6244989;23;20606;-74
2022/01/31 08:06:22;;;;;;;9.40;5.53;;;2.70;99.90;;;;;;6243492;23;20159;-74
2022/01/31 08:08:50;;;;;;;9.50;5.50;;;2.80;99.90;;;;;;6242428;23;20488;-74
2022/01/31 08:11:17;;;;;;;12.33;6.57;;;2.80;99.90;;;;;;6244637;23;20706;-74
2022/01/31 08:13:44;;;;;;;11.87;6.93;;;2.90;99.90;;;;;;6243553;23;20214;-74
2022/01/31 08:16:13;;;;;;;15.43;8.47;;;3.00;99.90;;;;;;6242209;23;20155;-74
2022/01/31 08:18:42;;;;;;;14.33;7.80;;;3.00;99.90;;;;;;6244499;23;20261;-74
2022/01/31 08:21:12;;;;;;;13.70;7.93;;;3.10;99.90;;;;;;6244375;23;20213;-74
2022/01/31 08:23:40;;;;;;;16.27;8.23;;;3.20;99.90;;;;;;6243449;23;20158;-74
2022/01/31 08:26:11;;;;;;;15.43;7.20;;;3.30;99.90;;;;;;6244363;23;20478;-74
2022/01/31 08:28:41;;;;;;;15.57;8.33;;;3.40;99.90;;;;;;6244461;23;20174;-74
2022/01/31 08:31:14;;;;;;;16.17;8.40;;;3.40;99.90;;;;;;6244446;23;20194;-74
2022/01/31 08:33:46;;;;;;;15.30;7.97;;;3.40;99.90;;;;;;6243324;23;20621;-74
2022/01/31 08:36:14;;;;;;;17.37;8.67;;;3.50;99.90;;;;;;6244534;23;20183;-74
2022/01/31 08:38:43;;;;;;;13.47;7.83;;;3.50;99.90;;;;;;6242589;23;20179;-75
2022/01/31 08:41:12;;;;;;;14.27;8.20;;;3.60;99.90;;;;;;6244201;23;20666;-75
2022/01/31 08:43:40;;;;;;;13.87;8.13;;;3.60;99.90;;;;;;6243799;23;20206;-75
2022/01/31 08:46:09;;;;;;;17.30;8.77;;;3.60;99.90;;;;;;6241619;23;20162;-75
2022/01/31 08:48:36;;;;;;;15.23;8.53;;;3.70;99.90;;;;;;6244551;23;20586;-75
2022/01/31 08:51:04;;;;;;;13.70;8.13;;;3.70;99.90;;;;;;6243112;23;20245;-75
2022/01/31 08:53:33;;;;;;;16.47;8.70;;;3.70;99.90;;;;;;6244561;23;20191;-75
2022/01/31 08:56:04;;;;;;;15.80;7.97;;;3.80;99.90;;;;;;6242142;23;20159;-75
2022/01/31 08:58:32;;;;;;;14.63;8.07;;;3.80;99.90;;;;;;6242586;23;20155;-75
2022/01/31 09:01:01;;;;;;;14.70;7.33;;;3.90;99.90;;;;;;6242283;23;20170;-76
2022/01/31 09:03:43;;;;;;;12.83;7.23;;;3.90;99.90;;;;;;6243904;23;20196;-75
2022/01/31 09:06:12;;;;;;;13.40;7.70;;;4.00;99.90;;;;;;6243730;23;20178;-75
2022/01/31 09:08:41;;;;;;;14.83;7.80;;;4.10;99.90;;;;;;6244546;23;20159;-75
2022/01/31 09:11:09;;;;;;;13.83;6.80;;;4.10;99.90;;;;;;6242005;23;20543;-75
2022/01/31 09:13:36;;;;;;;15.53;7.30;;;4.20;99.90;;;;;;6243183;23;20613;-75
2022/01/31 09:16:03;;;;;;;12.63;7.17;;;4.20;99.90;;;;;;6243847;23;20539;-75
2022/01/31 09:18:31;;;;;;;15.90;7.50;;;4.30;99.90;;;;;;6243097;23;20154;-75
2022/01/31 09:20:58;;;;;;;14.80;7.57;;;4.30;99.90;;;;;;6242304;23;20158;-75
2022/01/31 09:23:26;;;;;;;19.97;6.80;;;4.40;99.90;;;;;;6241976;23;20154;-75
2022/01/31 09:25:55;;;;;;;14.67;7.27;;;4.40;99.90;;;;;;6242878;23;20159;-75
2022/01/31 09:28:22;;;;;;;14.20;6.90;;;4.50;99.90;;;;;;6243118;23;20210;-76
2022/01/31 09:30:49;;;;;;;17.30;6.70;;;4.50;99.90;;;;;;6242218;23;20241;-75
2022/01/31 09:33:17;;;;;;;14.50;6.93;;;4.50;99.90;;;;;;6243570;23;20510;-75
2022/01/31 09:35:44;;;;;;;13.60;7.00;;;4.60;99.90;;;;;;6244044;23;20210;-75
2022/01/31 09:38:13;;;;;;;14.60;7.00;;;4.60;99.90;;;;;;6244074;23;20214;-76
2022/01/31 09:40:42;;;;;;;12.43;6.73;;;4.70;99.90;;;;;;6243789;23;20174;-75
2022/01/31 09:43:29;;;;;;;15.57;7.03;;;4.90;99.90;;;;;;6244148;23;20552;-76
2022/01/31 09:46:15;;;;;;;15.83;6.80;;;5.10;90.10;;;;;;6243100;23;20253;-75
2022/01/31 09:48:44;;;;;;;12.93;6.40;;;5.20;1.00;;;;;;6243848;23;20180;-76
2022/01/31 09:51:12;;;;;;;17.33;7.80;;;5.20;1.00;;;;;;6243581;23;20205;-76
2022/01/31 09:53:41;;;;;;;16.37;7.00;;;5.30;1.00;;;;;;6244155;23;20159;-75
2022/01/31 09:56:11;;;;;;;13.07;6.23;;;5.30;1.00;;;;;;6244044;23;20217;-75
2022/01/31 09:58:40;;;;;;;10.03;5.80;;;5.40;1.00;;;;;;6243815;23;20166;-75
2022/01/31 10:01:10;;;;;;;18.20;6.27;;;5.40;1.00;;;;;;6244036;23;20470;-75
2022/01/31 10:03:48;;;;;;;16.20;5.47;;;5.60;1.00;;;;;;6243963;23;20640;-76
2022/01/31 10:06:23;;;;;;;10.57;4.67;;;5.70;1.00;;;;;;6243944;23;20531;-75
2022/01/31 10:09:01;;;;;;;10.57;5.07;;;5.70;1.00;;;;;;6243990;23;20200;-76
2022/01/31 10:11:30;;;;;;;11.23;4.77;;;5.60;1.00;;;;;;6244181;23;20244;-75
2022/01/31 10:16:55;;;;;;;9.90;3.97;;;5.60;1.00;;;;;;6244062;23;20161;-73
2022/01/31 10:19:22;;;;;;;5.30;3.50;;;5.70;1.00;;;;;;6243921;23;20158;-73
2022/01/31 10:22:01;;;;;;;7.33;3.67;;;5.50;1.00;;;;;;6243399;23;20162;-73
2022/01/31 10:24:29;;;;;;;7.37;3.23;;;5.60;1.00;;;;;;6243465;23;20225;-73
2022/01/31 10:26:56;;;;;;;4.70;3.07;;;5.60;1.00;;;;;;6243889;23;20155;-73
2022/01/31 10:29:26;;;;;;;7.10;3.17;;;5.60;1.00;;;;;;6243999;23;20594;-73
2022/01/31 10:32:02;;;;;;;5.17;2.50;;;5.50;1.00;;;;;;6243437;23;20182;-73
2022/01/31 10:34:31;;;;;;;5.90;2.77;;;5.50;1.00;;;;;;6243434;23;20568;-73
2022/01/31 10:37:10;;;;;;;6.13;2.93;;;5.50;1.00;;;;;;6243530;23;20182;-73
2022/01/31 10:54:01;;;;;;;2.87;1.60;;;5.50;1.00;;;;;;6243398;23;20250;-75
2022/01/31 10:56:37;;;;;;;2.13;1.37;;;5.40;1.00;;;;;;6243246;23;20174;-75
2022/01/31 10:59:07;;;;;;;1.70;1.50;;;5.50;4.00;;;;;;6243532;23;20188;-75
2022/01/31 11:01:38;;;;;;;3.33;1.40;;;5.50;1.00;;;;;;6243478;23;20204;-75
2022/01/31 11:04:07;;;;;;;3.73;1.30;;;5.50;1.00;;;;;;6243048;23;20224;-75
2022/01/31 11:06:35;;;;;;;1.63;1.30;;;5.50;1.00;;;;;;6243495;23;20178;-76
2022/01/31 11:09:08;;;;;;;2.57;1.30;;;5.50;1.00;;;;;;6242918;23;20217;-75
2022/01/31 11:11:37;;;;;;;0.93;0.90;;;5.60;16.40;;;;;;6243128;23;20198;-75
2022/01/31 11:14:05;;;;;;;1.87;1.17;;;5.60;1.00;;;;;;6243129;23;20645;-75
2022/01/31 11:16:32;;;;;;;1.47;1.20;;;5.60;1.00;;;;;;6243098;23;20209;-75
2022/01/31 11:19:06;;;;;;;2.43;1.50;;;5.70;13.60;;;;;;6243211;23;20249;-75
2022/01/31 11:21:35;;;;;;;1.43;1.23;;;5.70;1.00;;;;;;6242805;23;20229;-70
2022/01/31 11:24:05;;;;;;;1.83;1.40;;;5.80;1.00;;;;;;6243166;23;20253;-70
2022/01/31 11:26:40;;;;;;;2.40;1.30;;;5.90;1.00;;;;;;6243236;23;20582;-70
2022/01/31 11:29:09;;;;;;;1.40;1.30;;;6.00;1.00;;;;;;6243105;23;20308;-70
2022/01/31 11:31:37;;;;;;;1.80;1.20;;;5.90;1.00;;;;;;6241461;23;20224;-70
2022/01/31 11:34:07;;;;;;;2.43;1.83;;;6.00;1.00;;;;;;6243604;23;20197;-70
2022/01/31 11:36:36;;;;;;;1.63;1.30;;;6.00;1.00;;;;;;6244856;23;20163;-70
2022/01/31 11:39:07;;;;;;;2.33;1.50;;;6.10;1.00;;;;;;6243683;23;20155;-70
2022/01/31 11:41:35;;;;;;;3.00;1.43;;;6.20;1.00;;;;;;6243759;23;20530;-70
2022/01/31 11:44:12;;;;;;;1.33;1.23;;;6.10;1.00;;;;;;6243939;23;20159;-70
2022/01/31 11:46:41;;;;;;;1.57;1.47;;;6.10;1.00;;;;;;6244762;23;20154;-70
2022/01/31 11:49:13;;;;;;;1.40;1.30;;;6.00;1.00;;;;;;6244168;23;20669;-70
2022/01/31 11:52:08;;;;;;;1.80;1.53;;;6.00;1.00;;;;;;6244715;23;20194;-70
2022/01/31 11:54:46;;;;;;;1.77;1.27;;;5.90;1.00;;;;;;6173771;23;20182;-70
2022/01/31 11:57:15;;;;;;;2.10;1.53;;;5.90;1.00;;;;;;6244626;23;20531;-70
2022/01/31 11:59:43;;;;;;;1.53;1.43;;;5.90;1.00;;;;;;6244014;23;20225;-70
2022/01/31 12:02:15;;;;;;;3.07;1.93;;;5.90;1.00;;;;;;6243409;23;20190;-70
2022/01/31 12:04:49;;;;;;;7.03;1.40;;;5.90;8.50;;;;;;6244409;23;20234;-70
2022/01/31 12:07:40;;;;;;;4.27;1.70;;;6.00;88.30;;;;;;6243692;23;20182;-67
2022/01/31 12:10:11;;;;;;;1.60;1.50;;;6.00;99.90;;;;;;6244719;23;20213;-67
2022/01/31 12:12:48;;;;;;;1.30;1.20;;;5.90;99.90;;;;;;6244454;23;20637;-67
2022/01/31 12:24:07;;;;;;;1.80;1.70;;;5.80;99.90;;;;;;5106838;28;20473;-68
2022/01/31 12:26:52;;;;;;;1.97;1.80;;;5.90;77.50;;;;;;5124987;27;20255;-68
2022/01/31 12:29:21;;;;;;;2.87;2.00;;;5.90;97.20;;;;;;5148343;27;20200;-68
2022/01/31 12:31:51;;;;;;;3.60;1.67;;;6.00;99.90;;;;;;5147611;27;20207;-68
2022/01/31 12:34:40;;;;;;;3.00;1.70;;;6.00;99.90;;;;;;5147865;27;20729;-68
2022/01/31 12:37:23;;;;;;;1.60;1.50;;;6.10;99.90;;;;;;5148471;27;20681;-68
2022/01/31 12:40:03;;;;;;;1.50;1.40;;;6.20;99.90;;;;;;5143003;27;20287;-68
2022/01/31 12:42:54;;;;;;;1.90;1.30;;;6.20;43.30;;;;;;5129141;28;20696;-68
2022/01/31 12:45:24;;;;;;;2.03;1.60;;;6.20;1.00;;;;;;5127013;27;20295;-68
2022/01/31 12:48:18;;;;;;;2.13;1.60;;;6.20;1.00;;;;;;5128826;28;20204;-68
2022/01/31 12:51:03;;;;;;;2.97;1.40;;;6.30;1.00;;;;;;5142501;27;20215;-68
2022/01/31 12:53:54;;;;;;;2.63;1.20;;;6.30;1.00;;;;;;5147360;27;20203;-68
2022/01/31 12:56:31;;;;;;;2.80;1.30;;;6.20;1.00;;;;;;5148616;27;20203;-68
2022/01/31 12:59:06;;;;;;;2.20;1.20;;;6.20;1.00;;;;;;5127065;28;20368;-68
2022/01/31 13:01:35;;;;;;;1.53;1.30;;;6.10;99.90;;;;;;5128610;27;20226;-68
2022/01/31 13:04:05;;;;;;;4.23;2.13;;;6.10;99.90;;;;;;5147057;27;20264;-68
2022/01/31 13:06:52;;;;;;;2.57;1.60;;;6.10;99.90;;;;;;5147606;27;20452;-68
2022/01/31 13:09:22;;;;;;;1.73;1.53;;;6.10;99.90;;;;;;5148765;27;20204;-68
2022/01/31 13:11:52;;;;;;;3.70;1.60;;;6.10;99.90;;;;;;5147446;27;20702;-68
2022/01/31 13:14:22;;;;;;;3.07;1.50;;;6.10;99.90;;;;;;5146498;27;20203;-68
2022/01/31 13:17:01;;;;;;;2.33;1.33;;;6.10;99.90;;;;;;5146853;27;20211;-69
2022/01/31 13:19:32;;;;;;;3.23;2.13;;;6.10;99.90;;;;;;5147267;27;20221;-68
2022/01/31 13:22:02;;;;;;;1.80;1.17;;;6.00;99.90;;;;;;5147194;27;20555;-68
2022/01/31 13:24:35;;;;;;;4.17;1.90;;;6.10;99.90;;;;;;5146944;27;20292;-71
2022/01/31 13:27:04;;;;;;;4.83;2.03;;;6.10;99.90;;;;;;5146407;27;20642;-68
2022/01/31 13:29:35;;;;;;;5.53;2.90;;;6.10;99.90;;;;;;5128002;27;20615;-68
2022/01/31 13:32:28;;;;;;;6.40;2.67;;;6.10;99.90;;;;;;5131454;27;20267;-68